createdAt,value
2023-05-21T00:00:42.783Z,16.22
2023-05-21T00:03:31.207Z,16.20
2023-05-21T00:06:01.775Z,16.21
2023-05-21T00:08:30.721Z,16.24
2023-05-21T00:10:59.005Z,16.23
2023-05-21T00:13:27.238Z,16.10
2023-05-21T00:15:55.696Z,15.91
2023-05-21T00:18:25.591Z,15.78
2023-05-21T00:20:54.873Z,15.69
2023-05-21T00:23:23.430Z,15.71
2023-05-21T00:25:53.468Z,15.79
2023-05-21T00:28:22.292Z,15.82
2023-05-21T00:30:51.414Z,15.82
2023-05-21T00:33:22.246Z,15.78
2023-05-21T00:35:50.622Z,15.79
2023-05-21T00:38:19.326Z,15.80
2023-05-21T00:40:48.007Z,15.81
2023-05-21T00:43:16.692Z,15.81
2023-05-21T00:45:46.817Z,15.80
2023-05-21T00:48:16.124Z,15.77
2023-05-21T00:50:45.146Z,15.73
2023-05-21T00:53:15.500Z,15.63
2023-05-21T00:55:44.275Z,15.47
2023-05-21T00:58:13.062Z,15.41
2023-05-21T01:00:41.964Z,15.32
2023-05-21T01:03:11.269Z,15.19
2023-05-21T01:05:39.729Z,15.04
2023-05-21T01:08:10.507Z,14.87
2023-05-21T01:10:38.947Z,14.79
2023-05-21T01:13:07.641Z,14.80
2023-05-21T01:15:38.158Z,14.84
2023-05-21T01:18:07.862Z,14.89
2023-05-21T01:20:37.761Z,14.96
2023-05-21T01:23:06.838Z,15.02
2023-05-21T01:25:35.946Z,15.06
2023-05-21T01:28:04.971Z,15.07
2023-05-21T01:30:34.111Z,15.07
2023-05-21T01:33:15.684Z,15.06
2023-05-21T01:35:54.459Z,15.04
2023-05-21T01:38:42.841Z,15.00
2023-05-21T01:41:12.886Z,14.93
2023-05-21T01:43:44.543Z,14.82
2023-05-21T01:46:18.052Z,14.77
2023-05-21T01:48:48.780Z,14.77
2023-05-21T01:51:17.273Z,14.79
2023-05-21T01:53:45.658Z,14.83
2023-05-21T01:56:16.171Z,14.87
2023-05-21T01:58:44.777Z,14.88
2023-05-21T02:01:13.266Z,14.89
2023-05-21T02:03:41.680Z,14.89
2023-05-21T02:06:10.349Z,14.88
2023-05-21T02:08:38.834Z,14.86
2023-05-21T02:11:07.238Z,14.82
2023-05-21T02:13:42.714Z,14.77
2023-05-21T02:16:14.769Z,14.73
2023-05-21T02:18:43.802Z,14.72
2023-05-21T02:21:12.840Z,14.67
2023-05-21T02:23:42.779Z,14.64
2023-05-21T02:26:11.341Z,14.63
2023-05-21T02:28:40.757Z,14.55
2023-05-21T02:31:09.444Z,14.50
2023-05-21T02:33:41.007Z,14.51
2023-05-21T02:36:13.384Z,14.52
2023-05-21T02:38:45.572Z,14.53
2023-05-21T02:41:14.064Z,14.55
2023-05-21T02:43:42.453Z,14.57
2023-05-21T02:46:11.647Z,14.57
2023-05-21T02:48:40.405Z,14.56
2023-05-21T02:51:09.205Z,14.55
2023-05-21T02:53:37.609Z,14.54
2023-05-21T02:56:06.379Z,14.53
2023-05-21T02:58:34.761Z,14.52
2023-05-21T03:01:03.166Z,14.47
2023-05-21T03:03:32.634Z,14.49
2023-05-21T03:06:01.048Z,14.50
2023-05-21T03:08:29.643Z,14.51
2023-05-21T03:10:58.165Z,14.54
2023-05-21T03:13:26.501Z,14.56
2023-05-21T03:15:56.420Z,14.50
2023-05-21T03:18:24.835Z,14.38
2023-05-21T03:20:54.211Z,14.27
2023-05-21T03:23:22.604Z,14.17
2023-05-21T03:25:51.490Z,14.15
2023-05-21T03:28:20.594Z,14.22
2023-05-21T03:30:51.238Z,14.29
2023-05-21T03:33:39.677Z,14.38
2023-05-21T03:36:18.789Z,14.39
2023-05-21T03:38:47.185Z,14.28
2023-05-21T03:41:15.821Z,14.20
2023-05-21T03:43:46.201Z,14.15
2023-05-21T03:46:14.797Z,14.14
2023-05-21T03:49:07.127Z,14.08
2023-05-21T03:51:38.476Z,13.98
2023-05-21T03:54:06.970Z,13.91
2023-05-21T03:56:39.255Z,13.90
2023-05-21T03:59:07.540Z,13.87
2023-05-21T04:01:36.946Z,13.83
2023-05-21T04:04:06.161Z,13.80
2023-05-21T04:06:34.821Z,13.76
2023-05-21T04:09:02.983Z,13.76
2023-05-21T04:11:31.707Z,13.80
2023-05-21T04:13:59.987Z,13.87
2023-05-21T04:16:28.644Z,14.00
2023-05-21T04:18:57.153Z,14.13
2023-05-21T04:21:27.484Z,14.26
2023-05-21T04:23:57.817Z,14.36
2023-05-21T04:26:35.553Z,14.46
2023-05-21T04:29:05.229Z,14.52
2023-05-21T04:31:34.496Z,14.59
2023-05-21T04:34:03.765Z,14.64
2023-05-21T04:36:34.068Z,14.71
2023-05-21T04:39:02.768Z,14.76
2023-05-21T04:41:31.860Z,14.80
2023-05-21T04:44:01.256Z,14.89
2023-05-21T04:46:31.504Z,14.95
2023-05-21T04:49:06.150Z,15.01
2023-05-21T04:51:34.609Z,15.07
2023-05-21T04:54:04.184Z,15.12
2023-05-21T04:56:32.500Z,15.17
2023-05-21T04:59:05.641Z,15.24
2023-05-21T05:01:35.552Z,15.30
2023-05-21T05:04:04.677Z,15.36
2023-05-21T05:06:33.214Z,15.40
2023-05-21T05:09:01.587Z,15.44
2023-05-21T05:11:30.177Z,15.48
2023-05-21T05:13:59.406Z,15.55
2023-05-21T05:16:29.769Z,15.60
2023-05-21T05:18:58.569Z,15.66
2023-05-21T05:21:28.316Z,15.72
2023-05-21T05:23:57.476Z,15.77
2023-05-21T05:26:28.703Z,15.82
2023-05-21T05:28:57.670Z,15.88
2023-05-21T05:31:26.447Z,15.93
2023-05-21T05:33:55.571Z,15.97
2023-05-21T05:36:25.379Z,16.03
2023-05-21T05:38:53.867Z,16.07
2023-05-21T05:41:23.280Z,16.12
2023-05-21T05:43:51.863Z,16.16
2023-05-21T05:46:22.292Z,16.21
2023-05-21T05:48:52.423Z,16.25
2023-05-21T05:51:20.966Z,16.29
2023-05-21T05:53:49.399Z,16.34
2023-05-21T05:56:17.703Z,16.40
2023-05-21T05:58:46.273Z,16.45
2023-05-21T06:01:16.702Z,16.49
2023-05-21T06:03:45.390Z,16.53
2023-05-21T06:06:17.268Z,16.58
2023-05-21T06:08:46.554Z,16.63
2023-05-21T06:11:17.337Z,16.69
2023-05-21T06:13:46.327Z,16.73
2023-05-21T06:16:16.292Z,16.77
2023-05-21T06:18:44.839Z,16.80
2023-05-21T06:21:13.389Z,16.83
2023-05-21T06:23:42.718Z,16.85
2023-05-21T06:26:11.627Z,16.88
2023-05-21T06:28:40.117Z,16.89
2023-05-21T06:31:09.996Z,16.93
2023-05-21T06:33:39.626Z,17.00
2023-05-21T06:36:08.706Z,17.07
2023-05-21T06:38:37.026Z,17.13
2023-05-21T06:41:05.478Z,17.20
2023-05-21T06:43:52.722Z,17.32
2023-05-21T06:46:53.559Z,17.44
2023-05-21T06:49:22.151Z,17.55
2023-05-21T06:51:50.826Z,17.65
2023-05-21T06:54:19.290Z,17.74
2023-05-21T06:56:47.773Z,17.81
2023-05-21T06:59:18.839Z,17.92
2023-05-21T07:01:47.283Z,18.03
2023-05-21T07:04:16.008Z,18.14
2023-05-21T07:06:44.992Z,18.24
2023-05-21T07:09:13.381Z,18.29
2023-05-21T07:11:42.219Z,18.35
2023-05-21T07:14:11.575Z,18.40
2023-05-21T07:16:40.010Z,18.46
2023-05-21T07:19:09.397Z,18.48
2023-05-21T07:21:37.853Z,18.56
2023-05-21T07:24:07.977Z,18.66
2023-05-21T07:26:39.434Z,18.77
2023-05-21T07:29:08.466Z,18.85
2023-05-21T07:31:37.306Z,18.96
2023-05-21T07:34:05.919Z,19.03
2023-05-21T07:36:34.621Z,19.10
2023-05-21T07:39:03.915Z,19.19
2023-05-21T07:41:33.201Z,19.31
2023-05-21T07:44:02.526Z,19.43
2023-05-21T07:46:33.174Z,19.48
2023-05-21T07:49:02.172Z,19.52
2023-05-21T07:51:34.067Z,19.59
2023-05-21T07:54:02.483Z,19.65
2023-05-21T07:56:34.381Z,19.74
2023-05-21T07:59:02.973Z,19.83
2023-05-21T08:01:37.707Z,19.90
2023-05-21T08:04:07.106Z,19.97
2023-05-21T08:06:37.844Z,20.07
2023-05-21T08:09:07.152Z,20.17
2023-05-21T08:11:36.246Z,20.29
2023-05-21T08:14:04.848Z,20.43
2023-05-21T08:16:33.560Z,20.53
2023-05-21T08:19:02.836Z,20.61
2023-05-21T08:21:33.064Z,20.65
2023-05-21T08:24:03.224Z,20.74
2023-05-21T08:26:31.779Z,20.85
2023-05-21T08:29:00.190Z,20.96
2023-05-21T08:31:28.924Z,21.06
2023-05-21T08:33:57.562Z,21.14
2023-05-21T08:36:38.424Z,21.26
2023-05-21T08:39:17.745Z,21.38
2023-05-21T08:41:50.126Z,21.48
2023-05-21T08:44:25.155Z,21.61
2023-05-21T08:46:55.165Z,21.71
2023-05-21T08:49:27.570Z,21.89
2023-05-21T08:51:58.933Z,22.09
2023-05-21T08:54:28.197Z,22.30
2023-05-21T08:56:58.531Z,22.43
2023-05-21T08:59:29.724Z,22.55
2023-05-21T09:02:00.313Z,22.72
2023-05-21T09:04:36.480Z,22.93
2023-05-21T09:07:05.709Z,23.10
2023-05-21T09:10:10.076Z,23.35
2023-05-21T09:12:38.382Z,23.52
2023-05-21T09:15:07.969Z,23.78
2023-05-21T09:17:39.922Z,23.99
2023-05-21T09:20:29.876Z,24.31
2023-05-21T09:23:06.918Z,24.66
2023-05-21T09:25:38.042Z,24.92
2023-05-21T09:28:15.605Z,25.26
2023-05-21T09:30:54.387Z,25.53
2023-05-21T09:33:27.622Z,25.63
2023-05-21T09:35:56.880Z,25.91
2023-05-21T09:38:27.200Z,26.18
2023-05-21T09:40:57.395Z,26.51
2023-05-21T09:43:26.248Z,26.82
2023-05-21T09:45:58.970Z,27.13
2023-05-21T09:48:41.068Z,27.33
2023-05-21T09:51:20.724Z,27.50
2023-05-21T09:53:51.923Z,27.78
2023-05-21T09:56:32.028Z,27.97
2023-05-21T09:59:06.987Z,28.10
2023-05-21T10:01:36.253Z,28.28
2023-05-21T10:04:08.462Z,28.16
2023-05-21T10:06:48.137Z,27.56
2023-05-21T10:09:19.575Z,27.97
2023-05-21T10:11:51.928Z,28.73
2023-05-21T10:14:22.738Z,29.36
2023-05-21T10:16:54.335Z,29.93
2023-05-21T10:19:25.017Z,30.26
2023-05-21T10:21:54.689Z,30.07
2023-05-21T10:24:24.853Z,29.51
2023-05-21T10:26:53.834Z,29.93
2023-05-21T10:29:23.524Z,29.82
2023-05-21T10:31:52.969Z,29.62
2023-05-21T10:34:23.839Z,29.05
2023-05-21T10:36:55.047Z,29.06
2023-05-21T10:39:25.826Z,29.84
2023-05-21T10:42:23.551Z,30.61
2023-05-21T10:45:08.488Z,30.54
2023-05-21T10:48:02.094Z,30.77
2023-05-21T10:50:49.993Z,30.34
2023-05-21T10:53:43.007Z,30.86
2023-05-21T10:56:17.018Z,30.91
2023-05-21T10:59:04.444Z,30.51
2023-05-21T11:01:36.820Z,29.75
2023-05-21T11:04:06.446Z,30.25
2023-05-21T11:06:34.720Z,30.90
2023-05-21T11:09:13.784Z,30.70
2023-05-21T11:11:43.101Z,30.18
2023-05-21T11:14:31.995Z,29.83
2023-05-21T11:17:01.499Z,29.24
2023-05-21T11:19:36.410Z,28.88
2023-05-21T11:22:24.090Z,28.84
2023-05-21T11:24:56.895Z,30.07
2023-05-21T11:27:34.755Z,31.03
2023-05-21T11:30:15.103Z,30.85
2023-05-21T11:33:14.204Z,31.22
2023-05-21T11:35:45.439Z,30.59
2023-05-21T11:38:13.828Z,30.17
2023-05-21T11:41:05.862Z,30.09
2023-05-21T11:43:36.497Z,31.12
2023-05-21T11:46:09.995Z,31.98
2023-05-21T11:48:39.505Z,32.84
2023-05-21T11:51:07.997Z,33.47
2023-05-21T11:53:39.544Z,33.87
2023-05-21T11:56:09.997Z,33.62
2023-05-21T11:58:42.963Z,32.93
2023-05-21T12:01:22.542Z,32.23
2023-05-21T12:03:51.221Z,32.23
2023-05-21T12:06:26.577Z,33.14
2023-05-21T12:08:58.506Z,34.23
2023-05-21T12:11:27.706Z,35.07
2023-05-21T12:13:56.776Z,35.51
2023-05-21T12:16:25.557Z,35.20
2023-05-21T12:18:55.021Z,34.56
2023-05-21T12:21:23.389Z,33.50
2023-05-21T12:23:52.026Z,32.69
2023-05-21T12:26:21.950Z,32.16
2023-05-21T12:28:50.808Z,32.08
2023-05-21T12:31:19.923Z,32.14
2023-05-21T12:33:50.214Z,32.24
2023-05-21T12:36:34.377Z,33.04
2023-05-21T12:39:02.655Z,34.02
2023-05-21T12:41:30.871Z,34.55
2023-05-21T12:43:59.628Z,34.70
2023-05-21T12:46:28.494Z,35.20
2023-05-21T12:48:57.019Z,35.53
2023-05-21T12:51:25.605Z,35.81
2023-05-21T12:53:53.772Z,35.86
2023-05-21T12:56:22.700Z,36.41
2023-05-21T12:58:51.402Z,36.75
2023-05-21T13:01:21.953Z,37.03
2023-05-21T13:03:51.359Z,36.12
2023-05-21T13:06:19.697Z,34.57
2023-05-21T13:08:48.081Z,33.39
2023-05-21T13:11:16.360Z,32.58
2023-05-21T13:13:44.584Z,32.05
2023-05-21T13:16:12.801Z,32.53
2023-05-21T13:18:41.406Z,33.57
2023-05-21T13:21:10.001Z,34.76
2023-05-21T13:23:38.632Z,35.80
2023-05-21T13:26:07.690Z,36.00
2023-05-21T13:28:37.172Z,35.08
2023-05-21T13:31:05.890Z,35.10
2023-05-21T13:33:34.518Z,35.88
2023-05-21T13:36:02.982Z,35.79
2023-05-21T13:38:31.251Z,35.41
2023-05-21T13:40:59.761Z,35.34
2023-05-21T13:43:28.535Z,36.15
2023-05-21T13:45:57.166Z,37.24
2023-05-21T13:48:25.701Z,38.04
2023-05-21T13:50:56.872Z,38.37
2023-05-21T13:53:25.346Z,37.41
2023-05-21T13:55:53.632Z,36.39
2023-05-21T13:58:21.731Z,35.71
2023-05-21T14:00:50.329Z,34.75
2023-05-21T14:03:18.783Z,34.07
2023-05-21T14:05:48.577Z,33.50
2023-05-21T14:08:20.165Z,33.01
2023-05-21T14:10:48.328Z,32.56
2023-05-21T14:13:20.102Z,32.10
2023-05-21T14:15:48.743Z,31.62
2023-05-21T14:18:17.060Z,31.27
2023-05-21T14:20:45.309Z,31.70
2023-05-21T14:23:13.772Z,32.56
2023-05-21T14:25:43.015Z,32.53
2023-05-21T14:28:11.740Z,33.23
2023-05-21T14:30:40.317Z,34.50
2023-05-21T14:33:08.717Z,35.64
2023-05-21T14:35:37.536Z,36.08
2023-05-21T14:38:05.966Z,35.90
2023-05-21T14:40:34.164Z,35.43
2023-05-21T14:43:02.839Z,34.75
2023-05-21T14:45:33.397Z,33.68
2023-05-21T14:48:08.676Z,32.66
2023-05-21T14:50:41.301Z,33.07
2023-05-21T14:53:11.764Z,33.12
2023-05-21T14:55:40.047Z,32.77
2023-05-21T14:58:08.830Z,33.34
2023-05-21T15:00:38.160Z,33.98
2023-05-21T15:03:07.228Z,34.56
2023-05-21T15:05:36.248Z,34.82
2023-05-21T15:08:06.166Z,35.16
2023-05-21T15:10:34.337Z,35.46
2023-05-21T15:13:02.805Z,35.88
2023-05-21T15:15:31.184Z,36.49
2023-05-21T15:17:59.393Z,37.05
2023-05-21T15:20:27.905Z,37.40
2023-05-21T15:23:15.374Z,37.40
2023-05-21T15:25:46.065Z,37.77
2023-05-21T15:28:14.622Z,38.23
2023-05-21T15:30:43.292Z,38.27
2023-05-21T15:33:11.795Z,38.22
2023-05-21T15:35:41.223Z,38.23
2023-05-21T15:38:09.733Z,38.36
2023-05-21T15:40:41.479Z,38.10
2023-05-21T15:43:10.044Z,37.45
2023-05-21T15:45:38.875Z,36.76
2023-05-21T15:48:08.062Z,36.17
2023-05-21T15:50:36.518Z,35.91
2023-05-21T15:53:05.316Z,35.61
2023-05-21T15:55:34.047Z,35.54
2023-05-21T15:58:03.832Z,35.38
2023-05-21T16:00:32.304Z,34.92
2023-05-21T16:03:00.753Z,34.04
2023-05-21T16:05:29.577Z,33.42
2023-05-21T16:07:57.777Z,33.01
2023-05-21T16:10:26.048Z,32.89
2023-05-21T16:12:54.256Z,32.83
2023-05-21T16:15:22.985Z,32.80
2023-05-21T16:17:51.302Z,32.47
2023-05-21T16:20:22.216Z,31.85
2023-05-21T16:22:51.447Z,31.14
2023-05-21T16:25:20.326Z,30.50
2023-05-21T16:27:49.341Z,29.89
2023-05-21T16:30:17.936Z,29.55
2023-05-21T16:32:46.147Z,29.13
2023-05-21T16:35:14.598Z,28.71
2023-05-21T16:37:42.990Z,28.34
2023-05-21T16:40:12.378Z,28.02
2023-05-21T16:42:40.641Z,27.75
2023-05-21T16:45:09.536Z,27.50
2023-05-21T16:47:37.776Z,27.20
2023-05-21T16:50:06.898Z,27.00
2023-05-21T16:52:35.134Z,26.81
2023-05-21T16:55:03.659Z,26.61
2023-05-21T16:57:32.101Z,26.37
2023-05-21T17:00:02.051Z,26.18
2023-05-21T17:02:31.471Z,26.22
2023-05-21T17:04:59.823Z,26.06
2023-05-21T17:07:27.995Z,25.84
2023-05-21T17:09:56.379Z,25.65
2023-05-21T17:12:29.266Z,25.51
2023-05-21T17:15:01.337Z,25.42
2023-05-21T17:17:30.410Z,25.29
2023-05-21T17:19:59.238Z,25.14
2023-05-21T17:22:28.127Z,25.00
2023-05-21T17:24:56.541Z,24.91
2023-05-21T17:27:25.469Z,24.77
2023-05-21T17:29:53.675Z,24.68
2023-05-21T17:32:21.882Z,24.64
2023-05-21T17:34:50.154Z,24.61
2023-05-21T17:37:18.638Z,24.62
2023-05-21T17:39:47.152Z,24.60
2023-05-21T17:42:17.228Z,24.56
2023-05-21T17:44:45.559Z,24.51
2023-05-21T17:47:14.459Z,24.49
2023-05-21T17:49:45.485Z,24.45
2023-05-21T17:52:14.105Z,24.36
2023-05-21T17:54:42.654Z,24.26
2023-05-21T17:57:10.940Z,24.15
2023-05-21T17:59:41.501Z,24.05
2023-05-21T18:02:09.851Z,23.93
2023-05-21T18:04:38.595Z,23.83
2023-05-21T18:07:10.044Z,23.71
2023-05-21T18:09:38.390Z,23.60
2023-05-21T18:12:07.638Z,23.45
2023-05-21T18:14:36.144Z,23.35
2023-05-21T18:17:07.228Z,23.21
2023-05-21T18:19:35.822Z,23.03
2023-05-21T18:22:05.625Z,22.83
2023-05-21T18:24:34.334Z,22.69
2023-05-21T18:27:02.814Z,22.55
2023-05-21T18:29:31.322Z,22.36
2023-05-21T18:32:00.060Z,22.21
2023-05-21T18:34:28.467Z,22.08
2023-05-21T18:36:58.925Z,21.97
2023-05-21T18:39:28.317Z,21.82
2023-05-21T18:44:27.951Z,21.52
2023-05-21T18:46:58.027Z,21.37
2023-05-21T18:49:26.766Z,21.20
2023-05-21T18:51:55.253Z,21.06
2023-05-21T18:54:23.719Z,20.96
2023-05-21T18:56:52.328Z,20.84
2023-05-21T18:59:20.525Z,20.74
2023-05-21T19:01:48.706Z,20.64
2023-05-21T19:04:19.417Z,20.54
2023-05-21T19:06:47.801Z,20.44
2023-05-21T19:09:18.354Z,20.32
2023-05-21T19:11:47.239Z,20.20
2023-05-21T19:14:15.761Z,20.09
2023-05-21T19:16:43.917Z,19.99
2023-05-21T19:19:12.593Z,19.90
2023-05-21T19:21:41.048Z,19.81
2023-05-21T19:24:10.395Z,19.73
2023-05-21T19:26:39.255Z,19.66
2023-05-21T19:29:09.820Z,19.60
2023-05-21T19:31:39.221Z,19.55
2023-05-21T19:34:11.026Z,19.50
2023-05-21T19:36:52.434Z,19.45
2023-05-21T19:39:25.059Z,19.41
2023-05-21T19:41:53.819Z,19.35
2023-05-21T19:44:21.977Z,19.28
2023-05-21T19:46:51.647Z,19.22
2023-05-21T19:49:20.132Z,19.17
2023-05-21T19:51:49.669Z,19.12
2023-05-21T19:54:18.861Z,19.09
2023-05-21T19:56:47.539Z,19.05
2023-05-21T19:59:16.026Z,19.00
2023-05-21T20:01:45.156Z,18.95
2023-05-21T20:04:14.029Z,18.90
2023-05-21T20:06:42.539Z,18.85
2023-05-21T20:09:13.440Z,18.81
2023-05-21T20:11:42.553Z,18.76
2023-05-21T20:14:11.234Z,18.71
2023-05-21T20:16:39.760Z,18.65
2023-05-21T20:19:10.876Z,18.58
2023-05-21T20:21:39.788Z,18.53
2023-05-21T20:24:09.068Z,18.49
2023-05-21T20:26:37.462Z,18.49
2023-05-21T20:29:08.109Z,18.49
2023-05-21T20:31:37.141Z,18.46
2023-05-21T20:34:07.851Z,18.46
2023-05-21T20:36:37.132Z,18.45
2023-05-21T20:39:06.476Z,18.45
2023-05-21T20:41:37.918Z,18.47
2023-05-21T20:44:06.890Z,18.48
2023-05-21T20:46:38.971Z,18.47
2023-05-21T20:49:07.951Z,18.46
2023-05-21T20:51:36.349Z,18.42
2023-05-21T20:54:04.818Z,18.40
2023-05-21T20:56:42.100Z,18.39
2023-05-21T20:59:12.262Z,18.37
2023-05-21T21:01:41.499Z,18.36
2023-05-21T21:04:10.243Z,18.35
2023-05-21T21:06:40.566Z,18.32
2023-05-21T21:09:08.948Z,18.22
2023-05-21T21:11:37.533Z,18.09
2023-05-21T21:14:06.046Z,17.98
2023-05-21T21:16:34.546Z,17.94
2023-05-21T21:19:03.311Z,17.96
2023-05-21T21:21:32.012Z,17.95
2023-05-21T21:24:00.824Z,17.91
2023-05-21T21:26:29.273Z,17.90
2023-05-21T21:28:59.190Z,17.93
2023-05-21T21:31:27.987Z,17.93
2023-05-21T21:33:56.419Z,17.92
2023-05-21T21:36:25.062Z,17.89
2023-05-21T21:38:53.192Z,17.84
2023-05-21T21:41:22.047Z,17.75
2023-05-21T21:43:51.746Z,17.63
2023-05-21T21:46:20.156Z,17.58
2023-05-21T21:48:49.441Z,17.56
2023-05-21T21:51:17.926Z,17.52
2023-05-21T21:53:46.315Z,17.48
2023-05-21T21:56:14.704Z,17.41
2023-05-21T21:58:43.280Z,17.35
2023-05-21T22:01:11.702Z,17.26
2023-05-21T22:03:40.112Z,17.15
2023-05-21T22:06:08.548Z,17.01
2023-05-21T22:08:36.828Z,16.90
2023-05-21T22:11:05.170Z,16.79
2023-05-21T22:13:34.557Z,16.64
2023-05-21T22:16:03.213Z,16.52
2023-05-21T22:18:39.654Z,16.36
2023-05-21T22:21:10.652Z,16.27
2023-05-21T22:23:40.044Z,16.26
2023-05-21T22:26:09.619Z,16.22
2023-05-21T22:28:38.229Z,16.19
2023-05-21T22:31:07.315Z,16.13
2023-05-21T22:33:36.943Z,16.13
2023-05-21T22:36:05.987Z,16.13
2023-05-21T22:38:34.226Z,16.14
2023-05-21T22:41:02.435Z,16.12
2023-05-21T22:43:31.309Z,16.10
2023-05-21T22:45:59.823Z,16.08
2023-05-21T22:48:31.047Z,16.07
2023-05-21T22:51:01.822Z,16.04
2023-05-21T22:53:32.210Z,15.99
2023-05-21T22:56:01.174Z,15.99
2023-05-21T22:58:29.421Z,16.02
2023-05-21T23:00:58.295Z,16.02
2023-05-21T23:03:27.079Z,16.01
2023-05-21T23:05:55.252Z,16.00
2023-05-21T23:08:23.570Z,15.98
2023-05-21T23:10:52.028Z,15.94
2023-05-21T23:13:20.648Z,15.86
2023-05-21T23:15:48.886Z,15.80
2023-05-21T23:18:19.542Z,15.74
2023-05-21T23:20:48.082Z,15.73
2023-05-21T23:23:16.637Z,15.71
2023-05-21T23:25:45.721Z,15.70
2023-05-21T23:28:14.297Z,15.71
2023-05-21T23:30:42.958Z,15.70
2023-05-21T23:33:11.536Z,15.66
2023-05-21T23:35:39.969Z,15.61
2023-05-21T23:38:08.180Z,15.56
2023-05-21T23:40:37.555Z,15.48
2023-05-21T23:43:06.271Z,15.36
2023-05-21T23:45:34.719Z,15.29
2023-05-21T23:48:05.790Z,15.27
2023-05-21T23:50:34.162Z,15.24
2023-05-21T23:53:02.571Z,15.21
2023-05-21T23:55:30.928Z,15.14
2023-05-21T23:57:59.014Z,15.10
